Time;durP1;ratioP1;P1;durP2;ratioP2;P2;SDS_P1;SDS_P2;PMS_P1;PMS_P2;Temp;Humidity;BMP_temperature;BMP_pressure;BME280_temperature;BME280_humidity;BME280_pressure;Samples;Min_cycle;Max_cycle;Signal;HPM_P1;HPM_P2
2022/04/16 00:00:47;;;;;;;12.90;11.43;;;;;;;;;;5014271;28;94121;-73
2022/04/16 00:03:13;;;;;;;13.05;11.70;;;;;;;;;;5007249;28;93821;-72
2022/04/16 00:05:40;;;;;;;13.98;12.35;;;;;;;;;;5013269;28;94874;-72
2022/04/16 00:08:06;;;;;;;13.25;11.63;;;;;;;;;;5008578;28;94237;-72
2022/04/16 00:10:37;;;;;;;12.68;11.43;;;;;;;;;;4993285;28;94251;-73
2022/04/16 00:13:04;;;;;;;16.00;11.93;;;;;;;;;;4999288;28;94822;-73
2022/04/16 00:15:31;;;;;;;13.52;12.25;;;;;;;;;;5008814;28;92435;-73
2022/04/16 00:17:58;;;;;;;13.40;11.80;;;;;;;;;;5014901;28;93107;-73
2022/04/16 00:20:25;;;;;;;13.30;11.93;;;;;;;;;;5012655;28;94121;-73
2022/04/16 00:22:51;;;;;;;15.02;12.00;;;;;;;;;;5005131;28;91989;-73
2022/04/16 00:25:19;;;;;;;12.75;11.45;;;;;;;;;;5007781;28;93316;-73
2022/04/16 00:27:46;;;;;;;17.60;13.45;;;;;;;;;;5016620;28;93950;-72
2022/04/16 00:30:13;;;;;;;13.43;12.13;;;;;;;;;;5011309;28;94895;-73
2022/04/16 00:32:40;;;;;;;13.50;12.23;;;;;;;;;;5014154;28;93399;-72
2022/04/16 00:35:07;;;;;;;15.43;13.15;;;;;;;;;;5012020;28;92411;-72
2022/04/16 00:37:34;;;;;;;14.48;12.98;;;;;;;;;;5014634;28;92975;-72
2022/04/16 00:40:00;;;;;;;14.02;12.63;;;;;;;;;;5012147;28;93460;-73
2022/04/16 00:42:39;;;;;;;14.50;13.10;;;;;;;;;;5013606;28;92412;-73
2022/04/16 00:45:06;;;;;;;16.75;13.80;;;;;;;;;;5012634;28;93805;-73
2022/04/16 00:47:32;;;;;;;15.77;13.10;;;;;;;;;;5017681;28;93746;-73
2022/04/16 00:49:59;;;;;;;14.00;12.80;;;;;;;;;;5011774;28;92501;-73
2022/04/16 00:52:25;;;;;;;12.70;11.43;;;;;;;;;;5006485;27;96167;-73
2022/04/16 00:54:54;;;;;;;18.65;14.00;;;;;;;;;;5001379;28;95373;-73
2022/04/16 00:57:21;;;;;;;14.82;13.25;;;;;;;;;;5013353;28;95480;-73
2022/04/16 00:59:47;;;;;;;17.52;13.77;;;;;;;;;;5011729;28;95315;-72
2022/04/16 01:02:13;;;;;;;15.18;13.60;;;;;;;;;;5012238;28;93430;-73
2022/04/16 01:04:40;;;;;;;15.50;12.68;;;;;;;;;;5011381;28;93823;-73
2022/04/16 01:07:06;;;;;;;18.88;14.38;;;;;;;;;;5013670;28;93380;-73
2022/04/16 01:09:33;;;;;;;17.23;13.40;;;;;;;;;;5014835;28;93419;-73
2022/04/16 01:12:00;;;;;;;16.77;13.52;;;;;;;;;;5013619;28;92599;-73
2022/04/16 01:14:26;;;;;;;18.92;14.90;;;;;;;;;;5011382;28;92451;-73
2022/04/16 01:16:53;;;;;;;17.42;15.32;;;;;;;;;;5013713;28;94076;-72
2022/04/16 01:19:21;;;;;;;16.00;14.27;;;;;;;;;;5010296;28;96770;-73
2022/04/16 01:21:48;;;;;;;17.98;14.60;;;;;;;;;;5011968;28;92499;-73
2022/04/16 01:24:14;;;;;;;17.38;14.57;;;;;;;;;;4996800;27;93315;-72
2022/04/16 01:26:44;;;;;;;16.15;14.50;;;;;;;;;;5014581;28;93475;-72
2022/04/16 01:29:11;;;;;;;18.70;15.40;;;;;;;;;;5012102;28;92492;-74
2022/04/16 01:31:37;;;;;;;18.70;14.18;;;;;;;;;;5014973;28;93875;-72
2022/04/16 01:34:04;;;;;;;23.63;15.50;;;;;;;;;;5007787;28;92475;-73
2022/04/16 01:36:31;;;;;;;18.73;15.50;;;;;;;;;;4992871;28;93864;-72
2022/04/16 01:38:58;;;;;;;17.73;15.00;;;;;;;;;;5011614;28;94200;-72
2022/04/16 01:41:25;;;;;;;17.00;15.32;;;;;;;;;;5013350;28;92531;-72
2022/04/16 01:43:51;;;;;;;18.48;15.77;;;;;;;;;;5010312;28;95749;-72
2022/04/16 01:46:18;;;;;;;22.10;16.35;;;;;;;;;;5012820;28;94209;-72
2022/04/16 01:48:45;;;;;;;19.60;16.17;;;;;;;;;;5011424;28;92439;-72
2022/04/16 01:51:11;;;;;;;23.45;16.25;;;;;;;;;;5011677;28;93273;-72
2022/04/16 01:53:38;;;;;;;19.70;16.38;;;;;;;;;;4998952;28;94110;-73
2022/04/16 01:56:04;;;;;;;23.30;18.27;;;;;;;;;;5001226;28;93981;-72
2022/04/16 01:58:31;;;;;;;17.95;16.10;;;;;;;;;;4994028;28;94285;-72
2022/04/16 02:00:58;;;;;;;21.52;16.00;;;;;;;;;;5012645;28;91775;-72
2022/04/16 02:03:24;;;;;;;17.02;14.63;;;;;;;;;;5011013;28;93463;-73
2022/04/16 02:05:52;;;;;;;20.13;17.58;;;;;;;;;;5006768;28;94570;-72
2022/04/16 02:08:19;;;;;;;19.38;16.83;;;;;;;;;;4992786;28;96318;-73
2022/04/16 02:10:45;;;;;;;21.38;17.45;;;;;;;;;;4978953;28;96401;-73
2022/04/16 02:13:11;;;;;;;23.38;17.63;;;;;;;;;;5006322;28;95984;-72
2022/04/16 02:15:38;;;;;;;22.00;18.45;;;;;;;;;;5015479;28;92461;-72
2022/04/16 02:18:05;;;;;;;20.80;18.10;;;;;;;;;;5007498;28;94080;-73
2022/04/16 02:20:31;;;;;;;20.67;18.33;;;;;;;;;;5011876;28;92814;-72
2022/04/16 02:22:58;;;;;;;23.90;18.13;;;;;;;;;;4999507;28;94159;-72
2022/04/16 02:25:25;;;;;;;22.98;17.80;;;;;;;;;;4994397;28;94158;-72
2022/04/16 02:27:52;;;;;;;25.13;19.35;;;;;;;;;;5010278;28;92536;-73
2022/04/16 02:30:18;;;;;;;25.23;18.35;;;;;;;;;;4997851;28;93984;-73
2022/04/16 02:32:46;;;;;;;29.42;19.35;;;;;;;;;;4991101;28;95529;-72
2022/04/16 02:35:15;;;;;;;26.48;19.50;;;;;;;;;;4996664;28;92826;-72
2022/04/16 02:37:42;;;;;;;24.10;19.13;;;;;;;;;;5013821;28;93207;-72
2022/04/16 02:40:09;;;;;;;21.95;18.55;;;;;;;;;;5010929;28;92512;-73
2022/04/16 02:42:36;;;;;;;21.00;18.65;;;;;;;;;;5011638;28;93312;-72
2022/04/16 02:47:48;;;;;;;21.55;18.80;;;;;;;;;;5011032;28;93433;-72
2022/04/16 02:50:15;;;;;;;22.60;18.60;;;;;;;;;;5010500;28;94102;-72
2022/04/16 02:52:42;;;;;;;21.00;18.88;;;;;;;;;;5001363;28;94474;-72
2022/04/16 02:55:08;;;;;;;22.55;19.48;;;;;;;;;;5000429;28;92545;-72
2022/04/16 02:57:35;;;;;;;23.13;18.65;;;;;;;;;;5011220;28;95216;-73
2022/04/16 03:00:01;;;;;;;22.30;18.77;;;;;;;;;;5008986;28;92434;-72
2022/04/16 03:02:33;;;;;;;26.87;19.40;;;;;;;;;;4991485;28;94030;-72
2022/04/16 03:04:59;;;;;;;25.33;18.35;;;;;;;;;;5001673;28;93087;-72
2022/04/16 03:07:26;;;;;;;23.60;18.55;;;;;;;;;;5010296;28;92521;-73
2022/04/16 03:09:52;;;;;;;23.15;18.00;;;;;;;;;;5009381;28;93798;-73
2022/04/16 03:12:18;;;;;;;22.50;19.20;;;;;;;;;;5008009;28;94301;-73
2022/04/16 03:17:32;;;;;;;23.20;19.33;;;;;;;;;;5009335;28;93601;-73
2022/04/16 03:19:59;;;;;;;22.25;17.20;;;;;;;;;;5012966;28;94698;-73
2022/04/16 03:22:26;;;;;;;22.90;18.17;;;;;;;;;;5004044;28;94910;-73
2022/04/16 03:24:52;;;;;;;24.20;18.90;;;;;;;;;;5011218;28;93585;-73
2022/04/16 03:27:18;;;;;;;25.88;17.77;;;;;;;;;;5010142;28;92559;-73
2022/04/16 03:29:45;;;;;;;20.75;18.05;;;;;;;;;;5013000;28;93646;-73
2022/04/16 03:32:11;;;;;;;26.42;18.35;;;;;;;;;;5005032;28;94186;-73
2022/04/16 03:34:37;;;;;;;22.38;18.48;;;;;;;;;;4995273;28;92536;-73
2022/04/16 03:37:04;;;;;;;25.27;19.30;;;;;;;;;;5005650;28;93074;-73
2022/04/16 03:39:30;;;;;;;22.00;18.52;;;;;;;;;;5014756;28;93428;-73
2022/04/16 03:41:57;;;;;;;24.85;17.55;;;;;;;;;;5016083;28;93104;-73
2022/04/16 03:44:23;;;;;;;22.48;18.33;;;;;;;;;;5014899;28;94217;-73
2022/04/16 03:46:49;;;;;;;26.58;18.80;;;;;;;;;;5011001;28;95061;-73
2022/04/16 03:49:16;;;;;;;27.70;18.85;;;;;;;;;;5015922;28;96205;-73
2022/04/16 03:51:44;;;;;;;25.25;18.42;;;;;;;;;;5009506;28;94256;-73
2022/04/16 04:02:25;;;;;;;24.83;18.27;;;;;;;;;;4999670;28;92491;-73
2022/04/16 04:04:52;;;;;;;22.42;19.25;;;;;;;;;;4998323;28;93930;-73
2022/04/16 04:07:18;;;;;;;24.30;17.83;;;;;;;;;;5002804;28;92667;-73
2022/04/16 04:09:45;;;;;;;22.80;19.20;;;;;;;;;;5010421;28;93397;-72
2022/04/16 04:12:12;;;;;;;24.23;18.85;;;;;;;;;;4993968;28;95901;-73
2022/04/16 04:14:39;;;;;;;25.95;19.95;;;;;;;;;;5013953;28;93028;-73
2022/04/16 04:17:07;;;;;;;33.17;21.35;;;;;;;;;;5012565;28;93632;-73
2022/04/16 04:19:38;;;;;;;30.20;19.23;;;;;;;;;;5014153;28;92660;-73
2022/04/16 04:22:05;;;;;;;26.08;19.50;;;;;;;;;;5008766;28;92504;-73
2022/04/16 04:24:31;;;;;;;26.55;20.20;;;;;;;;;;4994315;28;94116;-73
2022/04/16 04:26:58;;;;;;;24.60;20.13;;;;;;;;;;5002344;28;92454;-73
2022/04/16 04:29:24;;;;;;;25.05;20.60;;;;;;;;;;5014894;28;93230;-74
2022/04/16 04:31:51;;;;;;;26.10;20.98;;;;;;;;;;5012200;28;93902;-73
2022/04/16 04:34:17;;;;;;;26.98;19.05;;;;;;;;;;5013890;28;92522;-72
2022/04/16 04:36:43;;;;;;;25.88;19.98;;;;;;;;;;5010667;28;95439;-73
2022/04/16 04:39:10;;;;;;;26.13;19.77;;;;;;;;;;5013136;28;94262;-73
2022/04/16 04:41:36;;;;;;;26.63;20.08;;;;;;;;;;5011071;28;93449;-73
2022/04/16 04:44:02;;;;;;;28.98;21.05;;;;;;;;;;5014911;28;92453;-73
2022/04/16 04:46:29;;;;;;;29.60;21.33;;;;;;;;;;5011922;28;94050;-72
2022/04/16 04:48:56;;;;;;;26.83;21.38;;;;;;;;;;5016658;28;92470;-73
2022/04/16 04:51:22;;;;;;;28.67;21.33;;;;;;;;;;5012021;28;93456;-73
2022/04/16 04:53:48;;;;;;;26.33;20.50;;;;;;;;;;4997606;28;92444;-73
2022/04/16 04:56:15;;;;;;;27.85;20.98;;;;;;;;;;4993669;27;92500;-72
2022/04/16 04:58:41;;;;;;;27.42;21.00;;;;;;;;;;5013433;28;94115;-72
2022/04/16 05:01:07;;;;;;;23.65;20.98;;;;;;;;;;5012127;28;95417;-73
2022/04/16 05:03:34;;;;;;;28.65;20.35;;;;;;;;;;5011075;28;96284;-73
2022/04/16 05:06:00;;;;;;;24.30;20.73;;;;;;;;;;5013803;28;94197;-73
2022/04/16 05:08:26;;;;;;;26.10;19.63;;;;;;;;;;5014365;28;92470;-73
2022/04/16 05:10:52;;;;;;;26.33;21.48;;;;;;;;;;5013201;28;94518;-73
2022/04/16 05:13:19;;;;;;;28.08;21.42;;;;;;;;;;5011937;28;92478;-73
2022/04/16 05:15:45;;;;;;;29.80;22.23;;;;;;;;;;5013505;28;93845;-73
2022/04/16 05:18:12;;;;;;;32.97;20.00;;;;;;;;;;5011867;28;92326;-72
2022/04/16 05:20:38;;;;;;;28.48;21.48;;;;;;;;;;5013706;28;93065;-73
2022/04/16 05:23:04;;;;;;;28.77;23.75;;;;;;;;;;5000713;28;93959;-73
2022/04/16 05:25:31;;;;;;;28.65;22.30;;;;;;;;;;4991706;28;96869;-73
2022/04/16 05:27:57;;;;;;;28.05;22.95;;;;;;;;;;5005899;28;93006;-73
2022/04/16 05:30:29;;;;;;;27.90;21.25;;;;;;;;;;5015724;28;94058;-72
2022/04/16 05:33:02;;;;;;;29.20;21.55;;;;;;;;;;5008863;28;92603;-73
2022/04/16 05:35:28;;;;;;;31.00;23.98;;;;;;;;;;5010815;28;94399;-73
2022/04/16 05:37:54;;;;;;;29.23;22.45;;;;;;;;;;5012754;28;94475;-71
2022/04/16 05:40:26;;;;;;;23.48;20.27;;;;;;;;;;5011313;28;92590;-74
2022/04/16 05:42:52;;;;;;;22.98;17.70;;;;;;;;;;5013834;28;93823;-73
2022/04/16 05:45:19;;;;;;;22.40;19.23;;;;;;;;;;5010670;28;93717;-73
2022/04/16 05:47:45;;;;;;;25.70;22.60;;;;;;;;;;5013420;28;92461;-73
2022/04/16 05:50:12;;;;;;;29.83;24.52;;;;;;;;;;5009666;28;94851;-73
2022/04/16 05:52:39;;;;;;;35.67;24.92;;;;;;;;;;5004469;28;94512;-73
2022/04/16 05:55:05;;;;;;;32.97;24.45;;;;;;;;;;4992473;28;93960;-74
2022/04/16 05:57:32;;;;;;;40.63;22.58;;;;;;;;;;5009638;28;94704;-73
2022/04/16 05:59:58;;;;;;;35.20;25.42;;;;;;;;;;5012646;28;92688;-74
2022/04/16 06:02:25;;;;;;;31.35;23.02;;;;;;;;;;5010873;28;95071;-74
2022/04/16 06:04:51;;;;;;;37.10;25.98;;;;;;;;;;5013089;28;94176;-73
2022/04/16 06:07:17;;;;;;;39.80;28.77;;;;;;;;;;5010757;28;91778;-73
2022/04/16 06:09:44;;;;;;;35.30;26.40;;;;;;;;;;5008331;28;95074;-73
2022/04/16 06:12:10;;;;;;;35.13;27.38;;;;;;;;;;4984072;28;93598;-73
2022/04/16 06:14:36;;;;;;;37.40;27.08;;;;;;;;;;5008386;28;95657;-73
2022/04/16 06:17:03;;;;;;;35.58;26.40;;;;;;;;;;5012752;28;93268;-73
2022/04/16 06:19:29;;;;;;;40.15;30.08;;;;;;;;;;5008811;28;93041;-71
2022/04/16 06:21:56;;;;;;;37.63;27.63;;;;;;;;;;5008341;28;94006;-72
2022/04/16 06:24:22;;;;;;;45.80;29.80;;;;;;;;;;4991874;28;93812;-72
2022/04/16 06:26:48;;;;;;;35.13;27.55;;;;;;;;;;4992693;28;93210;-72
2022/04/16 06:29:15;;;;;;;30.33;23.05;;;;;;;;;;5010987;28;93145;-72
2022/04/16 06:31:42;;;;;;;34.47;24.55;;;;;;;;;;4995475;28;92702;-73
2022/04/16 06:34:09;;;;;;;39.80;29.10;;;;;;;;;;4984956;28;93395;-72
2022/04/16 06:36:37;;;;;;;38.58;28.70;;;;;;;;;;4993094;28;94126;-73
2022/04/16 06:39:03;;;;;;;35.80;28.00;;;;;;;;;;4996874;28;95523;-72
2022/04/16 06:41:31;;;;;;;35.95;28.23;;;;;;;;;;4986397;28;96399;-71
2022/04/16 06:43:58;;;;;;;34.45;27.33;;;;;;;;;;4986999;28;93269;-72
2022/04/16 06:46:24;;;;;;;45.03;32.10;;;;;;;;;;4987119;28;92623;-72
2022/04/16 06:48:51;;;;;;;26.95;22.48;;;;;;;;;;4991446;28;93794;-72
2022/04/16 06:51:17;;;;;;;35.78;28.23;;;;;;;;;;4982408;28;94486;-72
2022/04/16 06:53:43;;;;;;;27.60;23.70;;;;;;;;;;4992108;28;92554;-73
2022/04/16 06:56:10;;;;;;;31.42;24.58;;;;;;;;;;4986802;28;93653;-72
2022/04/16 06:58:36;;;;;;;33.58;26.67;;;;;;;;;;4986672;28;92512;-72
2022/04/16 07:01:02;;;;;;;31.83;23.48;;;;;;;;;;4994713;28;93066;-74
2022/04/16 07:03:29;;;;;;;32.17;27.50;;;;;;;;;;4985986;28;94846;-73
2022/04/16 07:05:55;;;;;;;28.63;22.80;;;;;;;;;;4984555;28;92613;-72
2022/04/16 07:08:22;;;;;;;29.50;23.35;;;;;;;;;;4993560;28;94025;-75
2022/04/16 07:10:51;;;;;;;27.77;24.23;;;;;;;;;;4991801;28;93168;-76
2022/04/16 07:13:17;;;;;;;28.75;23.77;;;;;;;;;;4992089;28;92504;-73
2022/04/16 07:15:45;;;;;;;26.45;22.50;;;;;;;;;;4989104;28;93995;-73
2022/04/16 07:18:11;;;;;;;26.17;22.90;;;;;;;;;;4994222;28;95850;-73
2022/04/16 07:20:37;;;;;;;37.95;24.80;;;;;;;;;;4987916;28;94258;-73
2022/04/16 07:23:04;;;;;;;30.50;20.45;;;;;;;;;;4982472;28;93855;-73
2022/04/16 07:25:31;;;;;;;23.45;18.90;;;;;;;;;;4990786;28;95030;-73
2022/04/16 07:27:57;;;;;;;23.38;19.40;;;;;;;;;;4985129;28;96519;-72
2022/04/16 07:30:23;;;;;;;24.80;20.23;;;;;;;;;;4988594;28;94667;-73
2022/04/16 07:32:50;;;;;;;23.25;20.75;;;;;;;;;;4991928;28;92509;-73
2022/04/16 07:35:17;;;;;;;20.13;17.98;;;;;;;;;;4989406;28;94090;-73
2022/04/16 07:37:43;;;;;;;21.08;18.85;;;;;;;;;;4989346;28;93828;-74
2022/04/16 07:40:10;;;;;;;22.58;17.17;;;;;;;;;;5000142;28;92520;-75
2022/04/16 07:42:36;;;;;;;21.17;19.02;;;;;;;;;;5007347;28;94179;-73
2022/04/16 07:45:02;;;;;;;20.75;16.92;;;;;;;;;;5004685;28;91834;-73
2022/04/16 07:47:29;;;;;;;20.05;17.95;;;;;;;;;;4998582;28;92780;-72
2022/04/16 07:49:55;;;;;;;19.40;17.33;;;;;;;;;;5006335;28;94728;-74
2022/04/16 07:52:24;;;;;;;22.33;17.33;;;;;;;;;;5001279;28;95231;-74
2022/04/16 07:54:51;;;;;;;17.25;15.40;;;;;;;;;;5011685;28;95548;-74
2022/04/16 07:57:18;;;;;;;18.70;15.77;;;;;;;;;;4997155;28;94124;-73
2022/04/16 07:59:44;;;;;;;15.45;12.75;;;;;;;;;;5005282;28;92530;-73
2022/04/16 08:02:10;;;;;;;19.52;16.63;;;;;;;;;;5008071;28;94218;-73
2022/04/16 08:04:37;;;;;;;17.98;15.52;;;;;;;;;;4985575;28;92612;-73
2022/04/16 08:07:03;;;;;;;20.00;15.73;;;;;;;;;;4984452;28;93666;-74
2022/04/16 08:09:30;;;;;;;17.73;15.02;;;;;;;;;;4989607;28;92651;-73
2022/04/16 08:11:57;;;;;;;17.13;15.20;;;;;;;;;;4984277;28;92951;-73
2022/04/16 08:14:25;;;;;;;18.85;16.60;;;;;;;;;;4989400;28;92973;-73
2022/04/16 08:16:51;;;;;;;20.70;17.88;;;;;;;;;;4988818;28;96131;-73
2022/04/16 08:19:18;;;;;;;18.38;14.40;;;;;;;;;;5012305;28;93039;-74
2022/04/16 08:21:45;;;;;;;17.25;15.52;;;;;;;;;;5009148;28;93186;-74
2022/04/16 08:24:22;;;;;;;18.33;16.35;;;;;;;;;;4999844;28;94205;-73
2022/04/16 08:26:48;;;;;;;17.98;16.17;;;;;;;;;;4974525;28;94275;-73
2022/04/16 08:29:15;;;;;;;16.45;14.05;;;;;;;;;;4974567;28;94131;-73
2022/04/16 08:31:41;;;;;;;16.90;14.07;;;;;;;;;;4974250;28;92534;-74
2022/04/16 08:34:28;;;;;;;18.20;15.00;;;;;;;;;;4976706;28;93369;-75
2022/04/16 08:36:54;;;;;;;16.73;13.88;;;;;;;;;;4984839;28;94066;-74
2022/04/16 08:39:20;;;;;;;17.73;14.70;;;;;;;;;;4995310;28;92456;-74
2022/04/16 08:41:47;;;;;;;18.75;15.95;;;;;;;;;;4991374;28;94954;-74
2022/04/16 08:44:19;;;;;;;15.80;14.10;;;;;;;;;;4994525;28;94287;-74
2022/04/16 08:46:45;;;;;;;25.73;11.70;;;;;;;;;;5000969;28;92546;-74
2022/04/16 08:49:13;;;;;;;17.63;14.20;;;;;;;;;;4993984;28;94476;-74
2022/04/16 08:51:40;;;;;;;17.23;14.63;;;;;;;;;;4992352;28;92804;-74
2022/04/16 08:54:06;;;;;;;19.55;13.88;;;;;;;;;;4989821;28;94474;-74
2022/04/16 08:56:33;;;;;;;15.13;13.60;;;;;;;;;;4983625;28;94593;-74
2022/04/16 08:58:59;;;;;;;15.80;13.02;;;;;;;;;;4986452;28;92442;-74
2022/04/16 09:01:25;;;;;;;15.80;13.02;;;;;;;;;;4987939;28;94280;-74
2022/04/16 09:03:58;;;;;;;18.55;13.45;;;;;;;;;;4991498;28;94440;-74
2022/04/16 09:06:25;;;;;;;15.05;12.15;;;;;;;;;;4990975;28;95006;-74
2022/04/16 09:08:51;;;;;;;16.80;13.20;;;;;;;;;;4990106;28;94239;-74
2022/04/16 09:11:23;;;;;;;16.05;12.68;;;;;;;;;;4988195;28;95972;-74
2022/04/16 09:13:50;;;;;;;15.05;12.75;;;;;;;;;;4988119;28;95251;-74
2022/04/16 09:16:16;;;;;;;12.40;11.10;;;;;;;;;;4990846;28;94118;-74
2022/04/16 09:18:44;;;;;;;13.38;11.82;;;;;;;;;;4988893;28;94700;-74
2022/04/16 09:21:12;;;;;;;11.75;10.63;;;;;;;;;;4983939;28;94088;-75
2022/04/16 09:23:43;;;;;;;11.60;10.18;;;;;;;;;;4993490;28;94067;-74
2022/04/16 09:26:09;;;;;;;9.45;8.65;;;;;;;;;;4986959;28;92519;-74
2022/04/16 09:28:42;;;;;;;9.88;8.95;;;;;;;;;;4990650;28;92983;-74
2022/04/16 09:31:08;;;;;;;10.07;9.05;;;;;;;;;;4984460;28;97361;-74
2022/04/16 09:33:39;;;;;;;8.75;7.82;;;;;;;;;;4984464;27;95664;-74
2022/04/16 09:36:05;;;;;;;10.27;9.18;;;;;;;;;;4988989;28;94258;-74
2022/04/16 09:38:35;;;;;;;9.38;8.25;;;;;;;;;;4993125;28;92463;-74
2022/04/16 09:41:05;;;;;;;11.68;9.05;;;;;;;;;;4993715;28;94533;-79
2022/04/16 09:43:36;;;;;;;8.27;7.50;;;;;;;;;;4985268;28;94602;-74
2022/04/16 09:46:12;;;;;;;6.72;5.55;;;;;;;;;;4991144;28;93344;-74
2022/04/16 09:48:39;;;;;;;9.27;7.15;;;;;;;;;;4986725;28;94335;-74
2022/04/16 09:51:06;;;;;;;7.90;7.20;;;;;;;;;;4991620;28;93402;-74
2022/04/16 09:53:36;;;;;;;7.22;6.53;;;;;;;;;;4990490;28;93890;-74
2022/04/16 09:56:02;;;;;;;6.90;6.40;;;;;;;;;;4988048;28;96771;-71
2022/04/16 09:58:33;;;;;;;7.75;6.43;;;;;;;;;;4990405;28;92988;-74
2022/04/16 10:01:01;;;;;;;6.75;6.15;;;;;;;;;;5005875;28;93993;-75
2022/04/16 10:03:29;;;;;;;7.00;6.38;;;;;;;;;;5011250;28;94180;-74
2022/04/16 10:05:57;;;;;;;7.10;6.43;;;;;;;;;;5012840;28;93122;-75
2022/04/16 10:08:25;;;;;;;6.45;5.75;;;;;;;;;;5001086;28;93003;-75
2022/04/16 10:10:55;;;;;;;8.98;5.90;;;;;;;;;;4988851;28;94237;-74
2022/04/16 10:13:22;;;;;;;3.15;2.95;;;;;;;;;;4996495;28;93524;-73
2022/04/16 10:15:59;;;;;;;4.25;4.05;;;;;;;;;;4997642;28;94532;-75
2022/04/16 10:18:26;;;;;;;5.13;3.17;;;;;;;;;;4988815;28;92497;-75
2022/04/16 10:20:53;;;;;;;5.32;4.68;;;;;;;;;;4992764;28;94861;-75
2022/04/16 10:23:30;;;;;;;5.35;4.95;;;;;;;;;;4993022;28;93570;-78
2022/04/16 10:26:00;;;;;;;4.25;3.80;;;;;;;;;;5000433;28;92579;-79
2022/04/16 10:28:33;;;;;;;4.25;3.90;;;;;;;;;;4995665;28;93942;-77
2022/04/16 10:30:59;;;;;;;6.38;5.20;;;;;;;;;;4981999;28;94258;-77
2022/04/16 10:33:29;;;;;;;5.38;4.88;;;;;;;;;;4984193;28;92506;-77
2022/04/16 10:36:00;;;;;;;5.72;5.25;;;;;;;;;;4992544;28;93872;-77
2022/04/16 10:38:38;;;;;;;6.10;5.60;;;;;;;;;;4992251;28;93696;-77
2022/04/16 10:41:11;;;;;;;5.65;5.25;;;;;;;;;;4986897;28;93987;-77
2022/04/16 10:43:59;;;;;;;6.35;4.82;;;;;;;;;;4989560;28;94176;-77
2022/04/16 10:46:39;;;;;;;4.70;4.40;;;;;;;;;;4992036;28;95022;-77
2022/04/16 10:49:09;;;;;;;5.97;5.47;;;;;;;;;;4987859;28;98322;-77
2022/04/16 10:51:36;;;;;;;6.15;5.00;;;;;;;;;;4985055;28;94430;-77
2022/04/16 10:54:09;;;;;;;6.72;6.00;;;;;;;;;;4984999;28;93369;-79
2022/04/16 10:56:42;;;;;;;6.80;5.55;;;;;;;;;;4984316;28;94190;-77
2022/04/16 10:59:11;;;;;;;;;;;;;;;;;;4985159;28;94832;-77
2022/04/16 11:01:38;;;;;;;6.45;5.95;;;;;;;;;;4990270;28;123559;-77
2022/04/16 11:04:13;;;;;;;5.85;5.40;;;;;;;;;;4990472;28;93838;-76
2022/04/16 11:06:46;;;;;;;5.45;4.95;;;;;;;;;;4988847;28;92665;-77
2022/04/16 11:09:13;;;;;;;6.78;5.68;;;;;;;;;;4983094;28;94078;-77
2022/04/16 11:11:41;;;;;;;7.43;5.65;;;;;;;;;;4984848;28;96493;-77
2022/04/16 11:14:08;;;;;;;6.03;5.53;;;;;;;;;;4986425;28;92687;-77
2022/04/16 11:16:41;;;;;;;6.30;5.70;;;;;;;;;;4989832;28;96077;-77
2022/04/16 11:19:11;;;;;;;6.40;5.88;;;;;;;;;;5010059;28;93336;-77
2022/04/16 11:21:37;;;;;;;6.10;5.32;;;;;;;;;;4985044;28;95077;-76
2022/04/16 11:24:05;;;;;;;5.57;5.07;;;;;;;;;;4983099;28;95437;-76
2022/04/16 11:34:52;;;;;;;4.50;4.15;;;;;;;;;;4988715;28;93807;-76
2022/04/16 11:37:29;;;;;;;5.40;4.65;;;;;;;;;;4984328;27;97010;-76
2022/04/16 11:40:00;;;;;;;5.55;5.10;;;;;;;;;;4990783;28;93918;-77
2022/04/16 11:42:26;;;;;;;4.80;4.40;;;;;;;;;;4998514;28;93002;-78
2022/04/16 11:44:53;;;;;;;5.00;4.63;;;;;;;;;;4991099;28;94353;-77
2022/04/16 11:47:27;;;;;;;5.47;4.97;;;;;;;;;;4990678;28;92512;-77
2022/04/16 11:49:54;;;;;;;4.30;4.00;;;;;;;;;;4990034;28;94054;-77
2022/04/16 11:52:24;;;;;;;5.20;4.80;;;;;;;;;;4992629;28;94456;-76
2022/04/16 11:55:10;;;;;;;5.20;4.72;;;;;;;;;;4993944;28;92434;-76
2022/04/16 11:57:36;;;;;;;5.65;5.15;;;;;;;;;;4988495;28;93902;-75
2022/04/16 12:00:07;;;;;;;4.80;4.40;;;;;;;;;;4990978;28;96738;-74
2022/04/16 12:02:35;;;;;;;4.47;4.18;;;;;;;;;;4986577;28;95821;-73
2022/04/16 12:05:14;;;;;;;4.65;4.35;;;;;;;;;;4991576;28;96393;-73
2022/04/16 12:07:42;;;;;;;4.78;4.47;;;;;;;;;;4992923;28;93659;-74
2022/04/16 12:10:09;;;;;;;7.00;4.70;;;;;;;;;;4975962;28;93988;-73
2022/04/16 12:12:48;;;;;;;5.40;4.90;;;;;;;;;;4974584;28;94483;-73
2022/04/16 12:15:22;;;;;;;5.00;4.60;;;;;;;;;;4975933;28;92514;-73
2022/04/16 12:17:49;;;;;;;4.35;3.38;;;;;;;;;;4975575;28;94251;-73
2022/04/16 12:20:16;;;;;;;4.00;3.67;;;;;;;;;;4981057;28;92933;-74
2022/04/16 12:22:47;;;;;;;4.32;4.10;;;;;;;;;;4995150;28;92518;-74
2022/04/16 12:25:14;;;;;;;4.85;4.45;;;;;;;;;;4981314;28;93216;-73
2022/04/16 12:27:45;;;;;;;4.25;3.80;;;;;;;;;;4976651;28;95876;-74
2022/04/16 12:30:12;;;;;;;3.25;3.05;;;;;;;;;;4985766;28;96246;-74
2022/04/16 12:32:39;;;;;;;3.80;3.42;;;;;;;;;;4994067;28;94108;-74
2022/04/16 12:35:05;;;;;;;3.67;3.47;;;;;;;;;;4994737;28;92496;-74
2022/04/16 12:37:32;;;;;;;5.20;3.92;;;;;;;;;;4998090;28;93859;-74
2022/04/16 12:39:59;;;;;;;4.05;3.75;;;;;;;;;;5014073;28;93022;-74
2022/04/16 12:42:25;;;;;;;3.00;2.80;;;;;;;;;;5014794;28;92585;-74
2022/04/16 12:44:52;;;;;;;5.05;3.40;;;;;;;;;;5015776;28;93091;-75
2022/04/16 12:47:18;;;;;;;3.60;3.40;;;;;;;;;;5014099;28;94598;-74
2022/04/16 12:49:44;;;;;;;3.85;3.65;;;;;;;;;;5017740;28;92483;-74
2022/04/16 12:52:11;;;;;;;3.65;3.40;;;;;;;;;;5013099;28;96592;-75
2022/04/16 12:54:37;;;;;;;14.38;2.80;;;;;;;;;;5013815;28;92938;-75
2022/04/16 12:57:03;;;;;;;2.85;2.65;;;;;;;;;;5015036;28;93875;-75
2022/04/16 12:59:30;;;;;;;3.10;2.90;;;;;;;;;;5014473;28;94020;-75
2022/04/16 13:01:56;;;;;;;3.38;3.08;;;;;;;;;;5013518;28;92610;-74
2022/04/16 13:04:22;;;;;;;3.92;3.03;;;;;;;;;;5013827;28;93684;-75
2022/04/16 13:06:49;;;;;;;3.55;3.25;;;;;;;;;;4996052;28;95281;-74
2022/04/16 13:09:15;;;;;;;5.00;3.72;;;;;;;;;;5008593;28;91738;-75
2022/04/16 13:11:42;;;;;;;3.95;3.05;;;;;;;;;;5017312;28;93182;-74
2022/04/16 13:14:08;;;;;;;2.88;2.75;;;;;;;;;;5008510;28;92476;-74
2022/04/16 13:16:34;;;;;;;3.28;2.97;;;;;;;;;;4992371;28;95653;-74
2022/04/16 13:19:01;;;;;;;4.10;2.70;;;;;;;;;;4994268;28;94043;-74
2022/04/16 13:21:27;;;;;;;2.85;2.63;;;;;;;;;;4993609;28;93185;-74
2022/04/16 13:23:56;;;;;;;3.30;3.00;;;;;;;;;;4994763;28;93447;-74
2022/04/16 13:26:22;;;;;;;2.90;2.65;;;;;;;;;;4994035;28;93896;-74
2022/04/16 13:28:50;;;;;;;3.58;3.33;;;;;;;;;;4994031;28;92537;-74
2022/04/16 13:31:17;;;;;;;2.53;2.42;;;;;;;;;;4997885;28;94449;-74
2022/04/16 13:33:43;;;;;;;5.15;2.70;;;;;;;;;;4995152;28;91712;-74
2022/04/16 13:36:09;;;;;;;3.97;2.90;;;;;;;;;;4994372;28;93283;-75
2022/04/16 13:38:36;;;;;;;3.03;2.60;;;;;;;;;;4992852;28;94198;-75
2022/04/16 13:43:47;;;;;;;4.30;2.60;;;;;;;;;;4993900;28;95219;-74
2022/04/16 13:46:17;;;;;;;3.00;2.80;;;;;;;;;;4993951;28;93817;-74
2022/04/16 13:48:43;;;;;;;3.00;2.70;;;;;;;;;;4993767;28;92452;-74
2022/04/16 13:51:09;;;;;;;3.03;2.78;;;;;;;;;;4993508;28;92467;-74
2022/04/16 13:53:37;;;;;;;3.05;2.78;;;;;;;;;;4996759;28;94185;-74
2022/04/16 13:56:03;;;;;;;2.90;2.70;;;;;;;;;;4993781;28;93953;-74
2022/04/16 13:58:30;;;;;;;2.80;2.22;;;;;;;;;;4993008;28;93497;-74
2022/04/16 14:00:56;;;;;;;2.30;2.10;;;;;;;;;;4994620;28;92582;-74
2022/04/16 14:03:23;;;;;;;2.40;2.20;;;;;;;;;;4993502;28;92887;-74
2022/04/16 14:05:49;;;;;;;2.20;2.10;;;;;;;;;;4991106;28;96524;-74
2022/04/16 14:08:18;;;;;;;1.90;1.60;;;;;;;;;;4993246;28;92503;-74
2022/04/16 14:10:44;;;;;;;1.90;1.80;;;;;;;;;;4992814;28;93557;-75
2022/04/16 14:13:11;;;;;;;1.80;1.67;;;;;;;;;;4992335;28;94466;-74
2022/04/16 14:15:37;;;;;;;2.97;1.90;;;;;;;;;;4996374;28;92528;-75
2022/04/16 14:18:04;;;;;;;1.90;1.80;;;;;;;;;;4992623;28;94231;-74
2022/04/16 14:20:30;;;;;;;4.68;1.65;;;;;;;;;;4993174;28;92492;-74
2022/04/16 14:22:57;;;;;;;3.88;2.13;;;;;;;;;;4994014;28;93937;-74
2022/04/16 14:25:23;;;;;;;2.60;1.60;;;;;;;;;;4992559;28;94314;-74
2022/04/16 14:27:50;;;;;;;3.10;2.15;;;;;;;;;;5007450;28;92618;-74
2022/04/16 14:30:18;;;;;;;1.88;1.77;;;;;;;;;;4984743;28;94928;-74
2022/04/16 14:32:45;;;;;;;3.35;1.90;;;;;;;;;;4972494;28;94179;-74
2022/04/16 14:35:11;;;;;;;1.90;1.80;;;;;;;;;;4973905;28;93393;-73
2022/04/16 14:37:38;;;;;;;2.67;2.47;;;;;;;;;;4974706;28;93995;-74
2022/04/16 14:40:05;;;;;;;2.47;2.28;;;;;;;;;;4984267;27;93243;-74
2022/04/16 14:42:32;;;;;;;2.50;2.30;;;;;;;;;;4973529;28;93591;-74
2022/04/16 14:44:58;;;;;;;2.88;2.58;;;;;;;;;;4983745;28;94196;-74
2022/04/16 14:47:25;;;;;;;3.03;2.50;;;;;;;;;;4993008;28;92209;-74
2022/04/16 14:49:51;;;;;;;3.65;2.30;;;;;;;;;;4988211;28;93074;-75
2022/04/16 14:52:18;;;;;;;2.47;2.20;;;;;;;;;;4973148;28;94273;-74